createdAt,value
2023-03-03T00:00:29.779Z,100656.63
2023-03-03T00:02:35.368Z,100656.28
2023-03-03T00:04:41.051Z,100661
2023-03-03T00:06:46.537Z,100659.13
2023-03-03T00:08:51.952Z,100652.5
2023-03-03T00:10:57.310Z,100653.34
2023-03-03T00:13:02.584Z,100654.61
2023-03-03T00:15:07.911Z,100652.83
2023-03-03T00:17:13.120Z,100647.12
2023-03-03T00:19:18.881Z,100647.67
2023-03-03T00:21:24.425Z,100644.39
2023-03-03T00:23:29.791Z,100646.23
2023-03-03T00:25:35.944Z,100640.7
2023-03-03T00:27:41.469Z,100639.18
2023-03-03T00:29:46.900Z,100643.12
2023-03-03T00:31:52.365Z,100640.69
2023-03-03T00:33:58.231Z,100637.03
2023-03-03T00:36:03.710Z,100636.55
2023-03-03T00:38:09.135Z,100630.17
2023-03-03T00:40:14.212Z,100633.53
2023-03-03T00:42:19.664Z,100628.55
2023-03-03T00:44:25.146Z,100621.09
2023-03-03T00:46:30.958Z,100621
2023-03-03T00:48:36.805Z,100615.41
2023-03-03T00:50:42.406Z,100615.05
2023-03-03T00:52:47.928Z,100613.8
2023-03-03T00:54:53.047Z,100608.53
2023-03-03T00:56:58.458Z,100609.2
2023-03-03T00:59:03.785Z,100610.38
2023-03-03T01:01:09.048Z,100609.89
2023-03-03T01:03:14.581Z,100602.56
2023-03-03T01:05:19.833Z,100600.88
2023-03-03T01:07:25.311Z,100602.23
2023-03-03T01:09:30.904Z,100597.88
2023-03-03T01:11:36.532Z,100590.14
2023-03-03T01:13:42.147Z,100585.56
2023-03-03T01:15:48.038Z,100584.19
2023-03-03T01:17:53.542Z,100584.63
2023-03-03T01:19:58.775Z,100581.72
2023-03-03T01:22:04.309Z,100577.41
2023-03-03T01:24:09.642Z,100577.16
2023-03-03T01:26:15.104Z,100577.15
2023-03-03T01:28:20.550Z,100568.03
2023-03-03T01:30:25.851Z,100568.17
2023-03-03T01:32:31.452Z,100563.77
2023-03-03T01:34:37.233Z,100563.69
2023-03-03T01:36:42.822Z,100560.46
2023-03-03T01:38:48.594Z,100559.13
2023-03-03T01:40:54.135Z,100559.27
2023-03-03T01:42:59.448Z,100558.22
2023-03-03T01:45:04.714Z,100563.27
2023-03-03T01:47:10.257Z,100560.5
2023-03-03T01:49:15.686Z,100553.62
2023-03-03T01:51:21.061Z,100555.86
2023-03-03T01:53:26.510Z,100554.99
2023-03-03T01:55:32.024Z,100553.15
2023-03-03T01:57:37.627Z,100554.11
2023-03-03T01:59:43.358Z,100550.08
2023-03-03T02:01:49.003Z,100546.45
2023-03-03T02:03:54.532Z,100548.63
2023-03-03T02:06:00.175Z,100546.1
2023-03-03T02:08:05.586Z,100546.7
2023-03-03T02:10:11.410Z,100546.61
2023-03-03T02:12:16.705Z,100542.12
2023-03-03T02:14:22.156Z,100543.19
2023-03-03T02:16:27.710Z,100535.72
2023-03-03T02:18:33.433Z,100540.16
2023-03-03T02:20:38.786Z,100539.7
2023-03-03T02:22:44.198Z,100540.88
2023-03-03T02:24:49.466Z,100541.23
2023-03-03T02:26:54.877Z,100545.33
2023-03-03T02:29:00.371Z,100543.47
2023-03-03T02:31:05.899Z,100539.89
2023-03-03T02:33:11.518Z,100544.69
2023-03-03T02:35:16.768Z,100542.98
2023-03-03T02:37:22.304Z,100547.89
2023-03-03T02:39:27.673Z,100547.06
2023-03-03T02:41:33.056Z,100546.8
2023-03-03T02:43:38.196Z,100545.95
2023-03-03T02:45:43.708Z,100545.53
2023-03-03T02:47:49.179Z,100538.63
2023-03-03T02:49:54.790Z,100538.73
2023-03-03T02:52:00.528Z,100537.39
2023-03-03T02:54:05.748Z,100533.84
2023-03-03T02:56:11.349Z,100537.34
2023-03-03T02:58:16.615Z,100539.41
2023-03-03T03:00:22.406Z,100537.91
2023-03-03T03:02:27.671Z,100531.95
2023-03-03T03:04:33.165Z,100533
2023-03-03T03:06:38.456Z,100528.29
2023-03-03T03:08:43.832Z,100527.08
2023-03-03T03:10:49.223Z,100524.41
2023-03-03T03:12:54.661Z,100531.24
2023-03-03T03:15:00.144Z,100528.11
2023-03-03T03:17:05.827Z,100520.41
2023-03-03T03:19:11.282Z,100524.5
2023-03-03T03:21:16.771Z,100516.66
2023-03-03T03:23:22.174Z,100513.73
2023-03-03T03:25:27.982Z,100517.55
2023-03-03T03:27:33.470Z,100517.45
2023-03-03T03:29:38.707Z,100520.7
2023-03-03T03:31:44.151Z,100525.77
2023-03-03T03:33:49.969Z,100521.78
2023-03-03T03:35:55.594Z,100529.33
2023-03-03T03:38:01.311Z,100521.91
2023-03-03T03:40:06.807Z,100524.92
2023-03-03T03:42:12.155Z,100524.23
2023-03-03T03:44:17.330Z,100525.23
2023-03-03T03:46:22.866Z,100524.86
2023-03-03T03:48:28.488Z,100521.77
2023-03-03T03:50:37.500Z,100521.61
2023-03-03T03:52:42.973Z,100522.27
2023-03-03T03:54:48.423Z,100526.03
2023-03-03T03:56:53.901Z,100526.23
2023-03-03T03:58:59.144Z,100522.92
2023-03-03T04:01:05.148Z,100522.5
2023-03-03T04:03:11.067Z,100523.55
2023-03-03T04:05:16.722Z,100521.47
2023-03-03T04:07:22.330Z,100519.61
2023-03-03T04:09:27.886Z,100520.61
2023-03-03T04:11:33.288Z,100519.82
2023-03-03T04:13:38.847Z,100521.13
2023-03-03T04:15:44.160Z,100510.23
2023-03-03T04:17:49.684Z,100501.92
2023-03-03T04:19:54.966Z,100493.7
2023-03-03T04:22:00.750Z,100486.09
2023-03-03T04:24:06.760Z,100477.77
2023-03-03T04:26:12.432Z,100483.81
2023-03-03T04:28:17.674Z,100486.77
2023-03-03T04:30:23.571Z,100488.96
2023-03-03T04:32:29.068Z,100491.63
2023-03-03T04:34:34.839Z,100485.25
2023-03-03T04:36:40.193Z,100477.73
2023-03-03T04:38:45.779Z,100471.05
2023-03-03T04:40:51.021Z,100478.04
2023-03-03T04:42:56.275Z,100479.45
2023-03-03T04:45:01.441Z,100470.26
2023-03-03T04:47:06.844Z,100475.75
2023-03-03T04:49:13.908Z,100474.33
2023-03-03T04:51:19.311Z,100471.84
2023-03-03T04:53:24.955Z,100469.25
2023-03-03T04:55:30.293Z,100471.14
2023-03-03T04:57:35.934Z,100468.41
2023-03-03T04:59:41.183Z,100473.31
2023-03-03T05:01:46.887Z,100471.02
2023-03-03T05:03:52.449Z,100470.04
2023-03-03T05:05:57.890Z,100467.81
2023-03-03T05:08:03.306Z,100465.73
2023-03-03T05:10:09.147Z,100466.67
2023-03-03T05:12:14.594Z,100462.87
2023-03-03T05:14:19.772Z,100459.43
2023-03-03T05:16:25.681Z,100460.45
2023-03-03T05:18:31.161Z,100462.16
2023-03-03T05:20:37.720Z,100461.6
2023-03-03T05:22:43.263Z,100463.5
2023-03-03T05:24:48.593Z,100466.78
2023-03-03T05:26:54.135Z,100461.78
2023-03-03T05:28:59.490Z,100465.59
2023-03-03T05:31:05.063Z,100464.63
2023-03-03T05:33:10.700Z,100467.95
2023-03-03T05:35:17.058Z,100471.72
2023-03-03T05:37:22.728Z,100477.43
2023-03-03T05:39:28.293Z,100471.67
2023-03-03T05:41:33.871Z,100472.55
2023-03-03T05:43:39.371Z,100470.56
2023-03-03T05:45:45.066Z,100470.02
2023-03-03T05:47:50.378Z,100466.86
2023-03-03T05:49:58.895Z,100466.36
2023-03-03T05:52:04.437Z,100465.23
2023-03-03T05:54:09.716Z,100471.27
2023-03-03T05:56:15.382Z,100471.8
2023-03-03T05:58:20.672Z,100469.44
2023-03-03T06:00:26.199Z,100472.91
2023-03-03T06:02:31.531Z,100477.75
2023-03-03T06:04:37.248Z,100484.95
2023-03-03T06:06:43.245Z,100489.85
2023-03-03T06:08:49.330Z,100488.28
2023-03-03T06:10:55.464Z,100482.53
2023-03-03T06:13:01.296Z,100487.06
2023-03-03T06:15:07.280Z,100483.16
2023-03-03T06:17:13.914Z,100484.73
2023-03-03T06:19:19.269Z,100478.02
2023-03-03T06:21:24.557Z,100478.02
2023-03-03T06:23:30.503Z,100468.57
2023-03-03T06:25:36.031Z,100465.86
2023-03-03T06:27:41.511Z,100469.62
2023-03-03T06:29:47.407Z,100469.2
2023-03-03T06:31:53.199Z,100464.32
2023-03-03T06:33:59.274Z,100462.14
2023-03-03T06:36:07.176Z,100467.98
2023-03-03T06:38:12.754Z,100471.13
2023-03-03T06:40:18.392Z,100474.09
2023-03-03T06:42:24.304Z,100469.22
2023-03-03T06:44:30.644Z,100473.27
2023-03-03T06:46:36.406Z,100478.08
2023-03-03T06:48:41.736Z,100471.86
2023-03-03T06:50:47.804Z,100473.73
2023-03-03T06:52:53.916Z,100470.34
2023-03-03T06:54:59.347Z,100475.81
2023-03-03T06:57:04.974Z,100475.33
2023-03-03T06:59:10.921Z,100472.33
2023-03-03T07:01:16.945Z,100473.69
2023-03-03T07:03:23.250Z,100474.77
2023-03-03T07:05:28.962Z,100468.72
2023-03-03T07:07:35.281Z,100471.34
2023-03-03T07:09:44.198Z,100468.34
2023-03-03T07:11:50.686Z,100477.56
2023-03-03T07:13:56.505Z,100474.68
2023-03-03T07:16:02.149Z,100478.58
2023-03-03T07:18:07.610Z,100478.47
2023-03-03T07:20:13.220Z,100475.28
2023-03-03T07:22:18.729Z,100476.05
2023-03-03T07:24:24.888Z,100471.31
2023-03-03T07:26:31.042Z,100473.6
2023-03-03T07:28:36.826Z,100475.72
2023-03-03T07:30:42.623Z,100464.97
2023-03-03T07:32:49.472Z,100455.13
2023-03-03T07:34:55.066Z,100460.16
2023-03-03T07:37:00.629Z,100454.41
2023-03-03T07:39:06.304Z,100460.41
2023-03-03T07:41:11.887Z,100456.48
2023-03-03T07:43:17.522Z,100458.54
2023-03-03T07:45:23.414Z,100463.51
2023-03-03T07:47:30.036Z,100456.07
2023-03-03T07:49:36.205Z,100469.56
2023-03-03T07:51:42.213Z,100465.7
2023-03-03T07:53:47.821Z,100468.61
2023-03-03T07:55:53.542Z,100469.57
2023-03-03T07:58:00.836Z,100470.5
2023-03-03T08:00:09.424Z,100474.3
2023-03-03T08:02:14.804Z,100473.28
2023-03-03T08:04:21.106Z,100474.88
2023-03-03T08:06:27.119Z,100480.39
2023-03-03T08:08:34.187Z,100474.64
2023-03-03T08:10:41.239Z,100480.14
2023-03-03T08:12:48.164Z,100477.86
2023-03-03T08:14:53.895Z,100483.23
2023-03-03T08:17:02.601Z,100488.22
2023-03-03T08:19:08.189Z,100486.31
2023-03-03T08:21:13.561Z,100486.33
2023-03-03T08:23:19.367Z,100484.86
2023-03-03T08:25:26.051Z,100486.65
2023-03-03T08:27:32.287Z,100479.63
2023-03-03T08:29:38.270Z,100494.05
2023-03-03T08:31:44.450Z,100486.22
2023-03-03T08:33:50.704Z,100488.91
2023-03-03T08:35:56.380Z,100490.46
2023-03-03T08:38:02.344Z,100490.87
2023-03-03T08:40:09.103Z,100496.86
2023-03-03T08:42:17.615Z,100495.05
2023-03-03T08:44:23.684Z,100497.41
2023-03-03T08:46:33.937Z,100499.22
2023-03-03T08:48:40.656Z,100502.3
2023-03-03T08:50:46.117Z,100499.06
2023-03-03T08:52:51.785Z,100501.38
2023-03-03T08:54:57.157Z,100498.38
2023-03-03T08:57:02.904Z,100505.13
2023-03-03T08:59:08.944Z,100505.06
2023-03-03T09:01:14.556Z,100497.23
2023-03-03T09:03:20.634Z,100491.7
2023-03-03T09:05:25.981Z,100489.84
2023-03-03T09:07:31.600Z,100488.36
2023-03-03T09:09:36.864Z,100487.48
2023-03-03T09:11:42.384Z,100489.51
2023-03-03T09:13:48.190Z,100489.99
2023-03-03T09:15:53.678Z,100489.34
2023-03-03T09:17:59.543Z,100488.37
2023-03-03T09:20:05.110Z,100489.09
2023-03-03T09:22:10.504Z,100485.03
2023-03-03T09:24:16.011Z,100484.79
2023-03-03T09:26:21.580Z,100498.59
2023-03-03T09:28:27.109Z,100507.97
2023-03-03T09:30:32.812Z,100513.73
2023-03-03T09:32:38.915Z,100504.86
2023-03-03T09:34:44.439Z,100503.75
2023-03-03T09:36:49.649Z,100495
2023-03-03T09:38:55.369Z,100493.96
2023-03-03T09:41:00.732Z,100486.45
2023-03-03T09:43:06.134Z,100486.9
2023-03-03T09:45:11.760Z,100485.58
2023-03-03T09:47:17.195Z,100472.05
2023-03-03T09:49:27.943Z,100470.57
2023-03-03T09:51:33.479Z,100461.34
2023-03-03T09:53:38.711Z,100462.97
2023-03-03T09:55:44.498Z,100460.19
2023-03-03T09:58:09.906Z,100464.69
2023-03-03T10:00:16.249Z,100460.56
2023-03-03T10:02:22.426Z,100457.05
2023-03-03T10:04:28.475Z,100448.89
2023-03-03T10:06:33.710Z,100454.58
2023-03-03T10:08:39.431Z,100450.47
2023-03-03T10:10:44.886Z,100440.91
2023-03-03T10:12:50.617Z,100437.59
2023-03-03T10:14:56.913Z,100434.78
2023-03-03T10:17:02.533Z,100434.28
2023-03-03T10:19:08.219Z,100428.56
2023-03-03T10:21:13.674Z,100429.34
2023-03-03T10:23:19.402Z,100435.23
2023-03-03T10:25:25.266Z,100441.19
2023-03-03T10:27:31.358Z,100443.13
2023-03-03T10:29:37.473Z,100443.3
2023-03-03T10:31:43.874Z,100435.37
2023-03-03T10:33:49.771Z,100437.53
2023-03-03T10:36:08.725Z,100443.98
2023-03-03T10:38:15.090Z,100447.33
2023-03-03T10:40:20.671Z,100448.03
2023-03-03T10:42:26.310Z,100447.78
2023-03-03T10:44:31.914Z,100439.04
2023-03-03T10:46:38.277Z,100437.32
2023-03-03T10:48:44.122Z,100437.56
2023-03-03T10:50:49.671Z,100428.87
2023-03-03T10:52:55.734Z,100429.64
2023-03-03T10:55:01.275Z,100430.95
2023-03-03T10:57:06.853Z,100435.44
2023-03-03T10:59:12.504Z,100440.92
2023-03-03T11:01:18.196Z,100441.34
2023-03-03T11:03:27.264Z,100438.84
2023-03-03T11:05:32.821Z,100434.05
2023-03-03T11:07:38.169Z,100429.77
2023-03-03T11:09:44.029Z,100424.82
2023-03-03T11:11:49.948Z,100425.77
2023-03-03T11:13:56.891Z,100437.45
2023-03-03T11:16:03.616Z,100446.56
2023-03-03T11:18:09.608Z,100448.7
2023-03-03T11:20:15.025Z,100446.39
2023-03-03T11:22:20.414Z,100449.25
2023-03-03T11:24:26.558Z,100450.65
2023-03-03T11:26:32.277Z,100453.48
2023-03-03T11:28:38.238Z,100454.89
2023-03-03T11:30:45.310Z,100459.53
2023-03-03T11:32:51.194Z,100462.53
2023-03-03T11:34:56.760Z,100462.57
2023-03-03T11:37:02.514Z,100456.13
2023-03-03T11:39:08.685Z,100460.09
2023-03-03T11:41:17.998Z,100450.49
2023-03-03T11:43:37.825Z,100442.5
2023-03-03T11:45:44.169Z,100442.72
2023-03-03T11:47:50.325Z,100433.96
2023-03-03T11:49:56.289Z,100429.94
2023-03-03T11:52:02.393Z,100433.81
2023-03-03T11:54:08.398Z,100432.81
2023-03-03T11:56:14.317Z,100437.34
2023-03-03T11:58:20.434Z,100431.66
2023-03-03T12:00:26.566Z,100434.69
2023-03-03T12:02:32.771Z,100431.28
2023-03-03T12:04:39.637Z,100431.47
2023-03-03T12:06:49.203Z,100426.31
2023-03-03T12:08:55.813Z,100426.48
2023-03-03T12:11:02.767Z,100426.39
2023-03-03T12:13:08.393Z,100427.03
2023-03-03T12:15:13.677Z,100428.21
2023-03-03T12:17:19.090Z,100435.33
2023-03-03T12:19:24.363Z,100435.73
2023-03-03T12:21:30.841Z,100434.77
2023-03-03T12:23:36.530Z,100431.67
2023-03-03T12:25:42.093Z,100435.59
2023-03-03T12:27:48.129Z,100433.48
2023-03-03T12:29:54.150Z,100433.33
2023-03-03T12:32:00.537Z,100433.7
2023-03-03T12:34:08.282Z,100435.77
2023-03-03T12:36:14.821Z,100436.64
2023-03-03T12:38:21.489Z,100434.37
2023-03-03T12:40:28.140Z,100432.27
2023-03-03T12:42:34.197Z,100435
2023-03-03T12:44:40.153Z,100440.31
2023-03-03T12:46:47.306Z,100441.2
2023-03-03T12:48:52.659Z,100435.98
2023-03-03T12:50:58.528Z,100432.69
2023-03-03T12:53:11.364Z,100427.76
2023-03-03T12:55:17.391Z,100427.63
2023-03-03T12:57:24.808Z,100430.21
2023-03-03T12:59:30.988Z,100427.53
2023-03-03T13:01:37.243Z,100429.88
2023-03-03T13:03:56.859Z,100434.13
2023-03-03T13:06:02.929Z,100431.77
2023-03-03T13:08:09.605Z,100435.41
2023-03-03T13:10:15.734Z,100434.11
2023-03-03T13:12:24.771Z,100433.61
2023-03-03T13:14:31.672Z,100432.41
2023-03-03T13:16:43.364Z,100433.47
2023-03-03T13:18:49.153Z,100436.09
2023-03-03T13:20:54.999Z,100428.62
2023-03-03T13:23:00.758Z,100431.74
2023-03-03T13:25:06.414Z,100434.97
2023-03-03T13:27:12.407Z,100439.47
2023-03-03T13:29:18.913Z,100436.36
2023-03-03T13:31:25.479Z,100433.58
2023-03-03T13:33:32.307Z,100431.56
2023-03-03T13:35:38.151Z,100435.13
2023-03-03T13:37:44.401Z,100430.09
2023-03-03T13:39:50.451Z,100440.08
2023-03-03T13:41:56.425Z,100433.11
2023-03-03T13:44:02.564Z,100428.48
2023-03-03T13:46:08.268Z,100424.44
2023-03-03T13:48:14.589Z,100424.34
2023-03-03T13:50:20.819Z,100429.33
2023-03-03T13:52:28.321Z,100427.59
2023-03-03T13:54:34.694Z,100425.32
2023-03-03T13:56:40.670Z,100425.23
2023-03-03T13:58:46.676Z,100423.3
2023-03-03T14:00:52.802Z,100421.08
2023-03-03T14:02:59.414Z,100419.67
2023-03-03T14:05:06.182Z,100420.08
2023-03-03T14:07:13.120Z,100424.97
2023-03-03T14:09:20.019Z,100420.16
2023-03-03T14:11:26.396Z,100414.28
2023-03-03T14:13:32.895Z,100414.72
2023-03-03T14:15:39.571Z,100414
2023-03-03T14:17:46.297Z,100408.88
2023-03-03T14:19:52.736Z,100406.34
2023-03-03T14:21:59.303Z,100400.58
2023-03-03T14:24:05.824Z,100403.8
2023-03-03T14:26:12.351Z,100409.02
2023-03-03T14:28:18.537Z,100407.83
2023-03-03T14:30:25.966Z,100411.53
2023-03-03T14:32:46.618Z,100404.44
2023-03-03T14:34:53.453Z,100399.1
2023-03-03T14:36:59.753Z,100398.48
2023-03-03T14:39:06.352Z,100399.16
2023-03-03T14:41:12.371Z,100406.11
2023-03-03T14:43:19.171Z,100408.81
2023-03-03T14:45:31.943Z,100408.21
2023-03-03T14:47:38.511Z,100411.46
2023-03-03T14:49:45.206Z,100412.44
2023-03-03T14:51:51.209Z,100413.3
2023-03-03T14:53:57.798Z,100413.81
2023-03-03T14:56:04.000Z,100415.03
2023-03-03T14:58:10.624Z,100415.54
2023-03-03T15:00:17.352Z,100413.69
2023-03-03T15:02:24.087Z,100416.65
2023-03-03T15:04:30.415Z,100417.19
2023-03-03T15:06:37.665Z,100416.55
2023-03-03T15:08:44.613Z,100412.14
2023-03-03T15:10:51.393Z,100406.31
2023-03-03T15:12:58.156Z,100406.21
2023-03-03T15:15:04.854Z,100408.5
2023-03-03T15:17:15.055Z,100412.64
2023-03-03T15:19:22.303Z,100414.77
2023-03-03T15:21:29.154Z,100414.2
2023-03-03T15:23:36.175Z,100411.91
2023-03-03T15:25:49.787Z,100411.45
2023-03-03T15:28:02.760Z,100409.89
2023-03-03T15:30:09.525Z,100411.66
2023-03-03T15:32:15.760Z,100407.97
2023-03-03T15:34:22.719Z,100409.49
2023-03-03T15:36:29.279Z,100407.38
2023-03-03T15:38:35.795Z,100410.38
2023-03-03T15:40:41.916Z,100414.63
2023-03-03T15:42:49.093Z,100410.87
2023-03-03T15:44:56.052Z,100410.69
2023-03-03T15:47:03.773Z,100409.44
2023-03-03T15:49:12.852Z,100410.16
2023-03-03T15:51:19.679Z,100404.02
2023-03-03T15:53:26.716Z,100403.53
2023-03-03T15:55:34.461Z,100404.66
2023-03-03T15:57:41.507Z,100402.3
2023-03-03T15:59:48.718Z,100413.07
2023-03-03T16:01:55.995Z,100408.55
2023-03-03T16:04:04.221Z,100408.61
2023-03-03T16:06:12.325Z,100409.05
2023-03-03T16:08:18.996Z,100399.42
2023-03-03T16:10:26.118Z,100400.11
2023-03-03T16:12:32.787Z,100399.72
2023-03-03T16:14:38.921Z,100398.41
2023-03-03T16:16:46.013Z,100399.13
2023-03-03T16:18:53.832Z,100400.05
2023-03-03T16:21:06.061Z,100400.74
2023-03-03T16:23:12.448Z,100407.69
2023-03-03T16:25:19.650Z,100402.47
2023-03-03T16:27:26.311Z,100405.39
2023-03-03T16:29:32.957Z,100404.27
2023-03-03T16:31:40.339Z,100403.73
2023-03-03T16:33:47.948Z,100405.94
2023-03-03T16:35:54.780Z,100403.52
2023-03-03T16:38:01.756Z,100402.88
2023-03-03T16:40:08.412Z,100404.06
2023-03-03T16:42:16.987Z,100402.23
2023-03-03T16:44:23.681Z,100404.71
2023-03-03T16:46:31.341Z,100400.59
2023-03-03T16:48:39.308Z,100403.57
2023-03-03T16:50:47.535Z,100409.17
2023-03-03T16:52:55.674Z,100407.91
2023-03-03T16:55:02.832Z,100404.15
2023-03-03T16:57:09.368Z,100404.46
2023-03-03T16:59:19.034Z,100396.11
2023-03-03T17:01:28.795Z,100400.19
2023-03-03T17:03:36.106Z,100405.3
2023-03-03T17:05:45.598Z,100401.64
2023-03-03T17:07:52.900Z,100400.67
2023-03-03T17:10:04.439Z,100397.05
2023-03-03T17:12:12.643Z,100393.27
2023-03-03T17:14:19.561Z,100387.61
2023-03-03T17:16:26.971Z,100391.89
2023-03-03T17:18:47.068Z,100390.63
2023-03-03T17:20:55.074Z,100391.98
2023-03-03T17:23:03.032Z,100389.8
2023-03-03T17:25:11.794Z,100392.36
2023-03-03T17:27:18.980Z,100385.03
2023-03-03T17:29:25.879Z,100389.72
2023-03-03T17:31:33.191Z,100389.72
2023-03-03T17:33:40.761Z,100390.77
2023-03-03T17:35:49.534Z,100392.37
2023-03-03T17:37:57.484Z,100391.91
2023-03-03T17:40:06.222Z,100389.6
2023-03-03T17:42:14.255Z,100389.23
2023-03-03T17:44:26.165Z,100390.11
2023-03-03T17:46:35.676Z,100398.01
2023-03-03T17:48:43.935Z,100392.89
2023-03-03T17:50:50.923Z,100389.14
2023-03-03T17:52:59.222Z,100394.09
2023-03-03T17:55:07.933Z,100393.95
2023-03-03T17:57:14.328Z,100393.02
2023-03-03T17:59:23.329Z,100389.97
2023-03-03T18:01:32.736Z,100385.09
2023-03-03T18:03:40.066Z,100382.57
2023-03-03T18:05:48.930Z,100379.55
2023-03-03T18:07:58.024Z,100381.2
2023-03-03T18:10:06.683Z,100381.11
2023-03-03T18:12:17.138Z,100382.05
2023-03-03T18:14:28.774Z,100377.5
2023-03-03T18:16:40.815Z,100374.73
2023-03-03T18:18:50.315Z,100371.48
2023-03-03T18:20:59.408Z,100370.44
2023-03-03T18:23:08.721Z,100368.61
2023-03-03T18:25:19.238Z,100367.78
2023-03-03T18:27:27.245Z,100370.05
2023-03-03T18:29:37.778Z,100364.12
2023-03-03T18:31:49.034Z,100371.19
2023-03-03T18:33:57.502Z,100363.79
2023-03-03T18:36:09.072Z,100366.08
2023-03-03T18:38:16.981Z,100358.61
2023-03-03T18:40:28.192Z,100358.86
2023-03-03T18:42:39.894Z,100356.55
2023-03-03T18:44:54.968Z,100361.05
2023-03-03T18:47:04.765Z,100358.36
2023-03-03T18:49:17.695Z,100351.47
2023-03-03T18:51:30.498Z,100344.06
2023-03-03T18:53:39.212Z,100353.14
2023-03-03T18:55:50.428Z,100350.55
2023-03-03T18:58:02.046Z,100348.77
2023-03-03T19:00:10.743Z,100356.69
2023-03-03T19:02:20.617Z,100356.09
2023-03-03T19:04:29.762Z,100352.05
2023-03-03T19:06:39.464Z,100354.95
2023-03-03T19:08:49.449Z,100354.16
2023-03-03T19:10:58.203Z,100351.94
2023-03-03T19:13:08.142Z,100342.38
2023-03-03T19:15:16.189Z,100336.76
2023-03-03T19:17:27.626Z,100335.3
2023-03-03T19:19:35.382Z,100326.15
2023-03-03T19:21:50.303Z,100324.03
2023-03-03T19:23:58.787Z,100325.55
2023-03-03T19:26:09.081Z,100323.38
2023-03-03T19:28:20.308Z,100333.45
2023-03-03T19:30:36.337Z,100331.34
2023-03-03T19:32:50.485Z,100328.73
2023-03-03T19:35:12.437Z,100325.03
2023-03-03T19:37:22.896Z,100317.93
2023-03-03T19:39:32.780Z,100317.81
2023-03-03T19:41:42.514Z,100311.75
2023-03-03T19:43:53.805Z,100311.18
2023-03-03T19:46:06.144Z,100314.67
2023-03-03T19:48:19.029Z,100307.55
2023-03-03T19:50:32.508Z,100302.59
2023-03-03T19:52:43.233Z,100294.88
2023-03-03T19:54:53.221Z,100301.13
2023-03-03T19:57:01.343Z,100296.67
2023-03-03T19:59:12.672Z,100292.59
2023-03-03T20:01:27.615Z,100295.02
2023-03-03T20:03:36.791Z,100298.11
2023-03-03T20:05:52.292Z,100291.77
2023-03-03T20:08:05.740Z,100282.29
2023-03-03T20:10:15.443Z,100282.03
2023-03-03T20:12:23.746Z,100284.94
2023-03-03T20:14:33.189Z,100283.8
2023-03-03T20:16:44.928Z,100274.86
2023-03-03T20:19:04.689Z,100272.11
2023-03-03T20:21:14.785Z,100267.57
2023-03-03T20:23:24.755Z,100268.38
2023-03-03T20:25:36.347Z,100267.15
2023-03-03T20:27:46.840Z,100266.34
2023-03-03T20:29:58.557Z,100259.67
2023-03-03T20:32:10.558Z,100262.94
2023-03-03T20:34:29.240Z,100262.75
2023-03-03T20:36:39.394Z,100259
2023-03-03T20:38:49.652Z,100259.77
2023-03-03T20:40:59.342Z,100253.17
2023-03-03T20:43:12.588Z,100255.83
2023-03-03T20:45:22.422Z,100255.27
2023-03-03T20:47:31.884Z,100239.75
2023-03-03T20:49:42.927Z,100231.61
2023-03-03T20:51:51.536Z,100224.62
2023-03-03T20:54:09.715Z,100231.8
2023-03-03T20:56:21.777Z,100227.61
2023-03-03T20:58:31.596Z,100220.06
2023-03-03T21:00:39.716Z,100236.1
2023-03-03T21:02:49.037Z,100232.51
2023-03-03T21:05:00.450Z,100229.83
2023-03-03T21:07:12.114Z,100226.6
2023-03-03T21:09:24.098Z,100219.69
2023-03-03T21:11:30.864Z,100216.9
2023-03-03T21:13:39.319Z,100218.75
2023-03-03T21:15:50.145Z,100223.17
2023-03-03T21:18:00.848Z,100216.34
2023-03-03T21:20:10.700Z,100216
2023-03-03T21:22:19.543Z,100208.84
2023-03-03T21:24:29.349Z,100202.17
2023-03-03T21:26:36.589Z,100203.32
2023-03-03T21:28:44.329Z,100203.89
2023-03-03T21:30:50.923Z,100196.58
2023-03-03T21:32:57.558Z,100197
2023-03-03T21:35:06.133Z,100197.64
2023-03-03T21:37:16.462Z,100195.08
2023-03-03T21:39:22.693Z,100187.2
2023-03-03T21:41:31.084Z,100190.63
2023-03-03T21:43:39.275Z,100184.54
2023-03-03T21:45:45.833Z,100176.72
2023-03-03T21:47:52.434Z,100174.53
2023-03-03T21:49:58.690Z,100160.63
2023-03-03T21:52:05.289Z,100172.73
2023-03-03T21:54:11.483Z,100166.06
2023-03-03T21:56:17.653Z,100168.48
2023-03-03T21:58:24.546Z,100162.81
2023-03-03T22:00:30.162Z,100159.12
2023-03-03T22:02:38.724Z,100151.41
2023-03-03T22:04:45.200Z,100149.77
2023-03-03T22:06:51.583Z,100152.14
2023-03-03T22:08:57.545Z,100147.32
2023-03-03T22:11:03.390Z,100141.5
2023-03-03T22:13:10.293Z,100137.81
2023-03-03T22:15:16.452Z,100140.96
2023-03-03T22:17:22.484Z,100137.8
2023-03-03T22:19:28.733Z,100138.3
2023-03-03T22:21:34.507Z,100130.78
2023-03-03T22:23:40.280Z,100131.52
2023-03-03T22:25:45.668Z,100127.88
2023-03-03T22:27:52.190Z,100132.48
2023-03-03T22:29:57.791Z,100125.44
2023-03-03T22:32:03.459Z,100125.6
2023-03-03T22:34:10.222Z,100128.91
2023-03-03T22:36:15.615Z,100121.91
2023-03-03T22:38:21.516Z,100116.93
2023-03-03T22:40:27.052Z,100113.96
2023-03-03T22:42:32.711Z,100109.3
2023-03-03T22:44:39.242Z,100104.06
2023-03-03T22:46:46.934Z,100103.11
2023-03-03T22:48:52.597Z,100100.27
2023-03-03T22:50:58.202Z,100090.44
2023-03-03T22:53:03.397Z,100084.38
2023-03-03T22:55:08.947Z,100084.53
2023-03-03T22:57:14.734Z,100079.42
2023-03-03T22:59:20.913Z,100085.45
2023-03-03T23:01:26.567Z,100076.41
2023-03-03T23:03:32.207Z,100075.76
2023-03-03T23:05:38.049Z,100066.98
2023-03-03T23:07:43.791Z,100071.5
2023-03-03T23:09:49.111Z,100064.84
2023-03-03T23:11:55.348Z,100068.75
2023-03-03T23:14:00.656Z,100056.16
2023-03-03T23:16:06.150Z,100050.77
2023-03-03T23:18:11.705Z,100053.44
2023-03-03T23:20:17.264Z,100044.49
2023-03-03T23:22:23.892Z,100045.41
2023-03-03T23:24:29.348Z,100033.25
2023-03-03T23:26:34.604Z,100035.05
2023-03-03T23:28:40.377Z,100031.3
2023-03-03T23:30:46.069Z,100030.98
2023-03-03T23:32:51.893Z,100032.03
2023-03-03T23:34:58.620Z,100029.5
2023-03-03T23:37:04.095Z,100031.8
2023-03-03T23:39:09.567Z,100024.23
2023-03-03T23:41:14.722Z,100020.65
2023-03-03T23:43:20.095Z,100021.95
2023-03-03T23:45:25.502Z,100016.64
2023-03-03T23:47:30.897Z,100009.48
2023-03-03T23:49:36.458Z,100010.3
2023-03-03T23:51:41.876Z,100008.92
2023-03-03T23:53:47.365Z,100008.34
2023-03-03T23:55:52.854Z,100005.06
2023-03-03T23:57:58.869Z,99990.87
